createdAt,value
2018-08-10T00:02:19.237Z,19.61
2018-08-10T00:04:47.092Z,19.57
2018-08-10T00:07:14.943Z,19.65
2018-08-10T00:09:42.697Z,19.58
2018-08-10T00:12:10.681Z,19.56
2018-08-10T00:14:38.567Z,19.61
2018-08-10T00:17:06.411Z,19.56
2018-08-10T00:19:34.195Z,19.56
2018-08-10T00:22:01.996Z,19.51
2018-08-10T00:24:29.840Z,19.52
2018-08-10T00:26:57.708Z,19.58
2018-08-10T00:29:25.608Z,19.59
2018-08-10T00:31:53.576Z,19.57
2018-08-10T00:34:21.467Z,19.55
2018-08-10T00:36:49.308Z,19.60
2018-08-10T00:39:17.141Z,19.53
2018-08-10T00:41:45.048Z,19.54
2018-08-10T00:44:13.155Z,19.50
2018-08-10T00:46:41.179Z,19.48
2018-08-10T00:49:09.043Z,19.34
2018-08-10T00:51:36.863Z,19.34
2018-08-10T00:54:04.743Z,19.39
2018-08-10T00:56:32.507Z,19.26
2018-08-10T00:59:00.339Z,19.23
2018-08-10T01:01:28.218Z,19.25
2018-08-10T01:03:56.131Z,19.11
2018-08-10T01:06:24.051Z,19.16
2018-08-10T01:08:51.935Z,19.14
2018-08-10T01:11:19.832Z,19.12
2018-08-10T01:13:47.669Z,18.96
2018-08-10T01:16:15.464Z,18.84
2018-08-10T01:18:43.413Z,18.93
2018-08-10T01:21:11.217Z,18.86
2018-08-10T01:23:39.155Z,18.79
2018-08-10T01:26:06.953Z,18.61
2018-08-10T01:28:34.870Z,18.58
2018-08-10T01:31:02.767Z,18.54
2018-08-10T01:33:30.697Z,18.53
2018-08-10T01:35:58.587Z,18.44
2018-08-10T01:38:26.394Z,18.41
2018-08-10T01:40:54.249Z,18.37
2018-08-10T01:43:22.092Z,18.31
2018-08-10T01:45:50.016Z,18.35
2018-08-10T01:48:17.856Z,18.37
2018-08-10T01:50:45.643Z,18.31
2018-08-10T01:53:13.439Z,18.25
2018-08-10T01:55:41.336Z,18.26
2018-08-10T01:58:09.188Z,18.10
2018-08-10T02:00:36.992Z,18.00
2018-08-10T02:03:05.294Z,17.98
2018-08-10T02:05:33.211Z,17.90
2018-08-10T02:08:01.072Z,17.94
2018-08-10T02:10:28.992Z,17.88
2018-08-10T02:12:57.570Z,17.87
2018-08-10T02:15:25.411Z,17.74
2018-08-10T02:17:53.263Z,17.73
2018-08-10T02:20:22.562Z,17.70
2018-08-10T02:22:50.510Z,17.59
2018-08-10T02:25:19.739Z,17.62
2018-08-10T02:27:48.545Z,17.55
2018-08-10T02:30:17.758Z,17.46
2018-08-10T02:32:46.581Z,17.49
2018-08-10T02:35:14.492Z,17.47
2018-08-10T02:37:42.554Z,17.42
2018-08-10T02:40:18.351Z,17.39
2018-08-10T02:42:47.163Z,17.35
2018-08-10T02:45:15.373Z,17.32
2018-08-10T02:47:43.520Z,17.33
2018-08-10T02:50:11.485Z,17.17
2018-08-10T02:52:39.260Z,17.11
2018-08-10T02:55:08.536Z,17.11
2018-08-10T02:57:36.787Z,17.09
2018-08-10T03:00:07.112Z,17.12
2018-08-10T03:02:35.133Z,17.00
2018-08-10T03:05:04.115Z,17.00
2018-08-10T03:07:31.977Z,16.88
2018-08-10T03:09:59.744Z,16.71
2018-08-10T03:12:27.490Z,16.76
2018-08-10T03:14:55.351Z,16.77
2018-08-10T03:17:23.251Z,16.80
2018-08-10T03:19:51.129Z,16.67
2018-08-10T03:22:19.034Z,16.52
2018-08-10T03:24:46.803Z,16.46
2018-08-10T03:27:14.628Z,16.50
2018-08-10T03:29:42.517Z,16.40
2018-08-10T03:32:10.408Z,16.42
2018-08-10T03:34:38.218Z,16.41
2018-08-10T03:37:06.036Z,16.37
2018-08-10T03:39:33.801Z,16.28
2018-08-10T03:42:01.636Z,16.23
2018-08-10T03:44:29.488Z,16.19
2018-08-10T03:46:57.297Z,16.14
2018-08-10T03:49:25.195Z,16.01
2018-08-10T03:51:53.156Z,15.98
2018-08-10T03:54:21.075Z,15.93
2018-08-10T03:56:48.995Z,15.98
2018-08-10T03:59:16.867Z,15.90
2018-08-10T04:01:45.112Z,15.94
2018-08-10T04:04:12.942Z,15.96
2018-08-10T04:06:40.856Z,15.94
2018-08-10T04:09:10.371Z,15.97
2018-08-10T04:11:38.215Z,15.97
2018-08-10T04:14:06.224Z,15.95
2018-08-10T04:16:34.204Z,16.02
2018-08-10T04:19:02.175Z,15.96
2018-08-10T04:21:30.036Z,16.02
2018-08-10T04:23:57.991Z,15.99
2018-08-10T04:26:25.803Z,15.90
2018-08-10T04:28:53.714Z,15.96
2018-08-10T04:31:21.562Z,15.96
2018-08-10T04:33:49.467Z,15.96
2018-08-10T04:36:17.358Z,15.90
2018-08-10T04:38:45.237Z,15.98
2018-08-10T04:41:13.205Z,16.04
2018-08-10T04:43:41.024Z,16.04
2018-08-10T04:46:08.883Z,16.13
2018-08-10T04:48:36.771Z,15.99
2018-08-10T04:51:04.548Z,15.88
2018-08-10T04:53:32.370Z,15.84
2018-08-10T04:56:00.244Z,15.86
2018-08-10T04:58:28.051Z,15.81
2018-08-10T05:00:55.867Z,15.78
2018-08-10T05:03:23.731Z,15.81
2018-08-10T05:05:51.573Z,15.74
2018-08-10T05:08:19.411Z,15.80
2018-08-10T05:10:47.358Z,15.69
2018-08-10T05:13:15.156Z,15.72
2018-08-10T05:15:42.979Z,15.70
2018-08-10T05:18:10.899Z,15.62
2018-08-10T05:20:38.791Z,15.60
2018-08-10T05:23:12.455Z,15.62
2018-08-10T05:25:40.347Z,15.65
2018-08-10T05:28:08.216Z,15.74
2018-08-10T05:30:37.771Z,15.75
2018-08-10T05:33:05.674Z,15.79
2018-08-10T05:35:33.540Z,15.89
2018-08-10T05:38:01.514Z,16.02
2018-08-10T05:40:31.064Z,16.32
2018-08-10T05:43:05.925Z,16.73
2018-08-10T05:45:37.215Z,17.28
2018-08-10T05:48:10.934Z,17.94
2018-08-10T05:50:38.877Z,18.65
2018-08-10T05:53:06.658Z,19.19
2018-08-10T05:55:34.457Z,19.26
2018-08-10T05:58:02.276Z,19.47
2018-08-10T06:00:30.129Z,19.32
2018-08-10T06:02:58.016Z,19.29
2018-08-10T06:05:25.856Z,19.00
2018-08-10T06:07:53.783Z,18.71
2018-08-10T06:10:21.635Z,18.65
2018-08-10T06:12:49.426Z,18.41
2018-08-10T06:15:17.329Z,18.21
2018-08-10T06:17:45.151Z,18.26
2018-08-10T06:20:12.995Z,18.22
2018-08-10T06:22:40.895Z,17.96
2018-08-10T06:25:08.775Z,18.14
2018-08-10T06:27:36.570Z,17.99
2018-08-10T06:30:08.260Z,17.78
2018-08-10T06:32:36.083Z,17.81
2018-08-10T06:35:03.904Z,17.90
2018-08-10T06:37:31.787Z,17.80
2018-08-10T06:39:59.706Z,17.84
2018-08-10T06:42:27.512Z,17.79
2018-08-10T06:44:55.568Z,17.83
2018-08-10T06:47:23.269Z,17.82
2018-08-10T06:49:51.123Z,17.86
2018-08-10T06:52:18.966Z,17.91
2018-08-10T06:54:46.827Z,17.99
2018-08-10T06:57:14.679Z,18.01
2018-08-10T06:59:42.503Z,18.12
2018-08-10T07:02:10.351Z,18.12
2018-08-10T07:04:38.155Z,18.19
2018-08-10T07:07:05.987Z,18.09
2018-08-10T07:09:33.873Z,18.13
2018-08-10T07:12:01.663Z,18.15
2018-08-10T07:14:29.547Z,18.17
2018-08-10T07:16:57.387Z,18.07
2018-08-10T07:19:25.222Z,18.17
2018-08-10T07:21:53.004Z,18.26
2018-08-10T07:24:20.811Z,18.37
2018-08-10T07:26:48.667Z,18.46
2018-08-10T07:29:16.596Z,18.40
2018-08-10T07:31:44.481Z,18.52
2018-08-10T07:34:12.371Z,18.55
2018-08-10T07:36:40.252Z,18.59
2018-08-10T07:39:10.347Z,18.72
2018-08-10T07:41:38.143Z,18.86
2018-08-10T07:44:06.331Z,18.99
2018-08-10T07:46:34.210Z,19.09
2018-08-10T07:49:02.007Z,19.13
2018-08-10T07:51:29.878Z,19.15
2018-08-10T07:53:57.864Z,19.26
2018-08-10T07:56:25.791Z,19.31
2018-08-10T07:58:53.567Z,19.49
2018-08-10T08:01:21.435Z,19.55
2018-08-10T08:03:49.279Z,19.63
2018-08-10T08:06:17.143Z,19.72
2018-08-10T08:08:44.835Z,19.87
2018-08-10T08:11:12.732Z,20.05
2018-08-10T08:13:40.630Z,20.24
2018-08-10T08:16:08.835Z,20.32
2018-08-10T08:18:37.328Z,20.21
2018-08-10T08:21:07.974Z,20.20
2018-08-10T08:23:35.835Z,20.10
2018-08-10T08:26:04.031Z,20.24
2018-08-10T08:28:32.324Z,20.44
2018-08-10T08:31:01.224Z,20.74
2018-08-10T08:33:29.167Z,20.92
2018-08-10T08:35:58.063Z,21.11
2018-08-10T08:38:43.271Z,21.01
2018-08-10T08:41:11.099Z,21.17
2018-08-10T08:46:11.883Z,20.95
2018-08-10T08:48:44.251Z,21.12
2018-08-10T08:51:14.864Z,21.18
2018-08-10T08:53:42.759Z,21.29
2018-08-10T08:56:15.028Z,21.36
2018-08-10T08:58:44.031Z,21.46
2018-08-10T09:01:12.207Z,21.46
2018-08-10T09:05:06.779Z,21.64
2018-08-10T09:07:35.044Z,21.89
2018-08-10T09:10:06.537Z,21.90
2018-08-10T09:12:34.343Z,21.96
2018-08-10T09:15:04.080Z,21.90
2018-08-10T09:17:32.161Z,22.08
2018-08-10T09:19:59.927Z,22.01
2018-08-10T09:22:28.404Z,22.06
2018-08-10T09:24:56.308Z,22.17
2018-08-10T09:27:24.218Z,22.11
2018-08-10T09:29:52.155Z,22.01
2018-08-10T09:32:19.969Z,22.08
2018-08-10T09:34:47.993Z,22.20
2018-08-10T09:37:15.922Z,22.24
2018-08-10T09:39:43.798Z,22.30
2018-08-10T09:42:11.674Z,22.37
2018-08-10T09:44:39.547Z,22.31
2018-08-10T09:47:08.225Z,22.54
2018-08-10T09:49:38.966Z,22.65
2018-08-10T09:52:06.860Z,22.76
2018-08-10T09:55:44.272Z,22.58
2018-08-10T09:58:19.748Z,22.74
2018-08-10T10:00:53.316Z,22.83
2018-08-10T10:03:22.496Z,22.84
2018-08-10T10:05:51.379Z,22.66
2018-08-10T10:08:19.855Z,22.63
2018-08-10T10:10:47.695Z,22.66
2018-08-10T10:13:15.543Z,22.86
2018-08-10T10:15:43.671Z,22.92
2018-08-10T10:18:13.088Z,23.06
2018-08-10T10:20:41.168Z,23.25
2018-08-10T10:23:09.077Z,23.52
2018-08-10T10:25:36.908Z,23.68
2018-08-10T10:28:05.191Z,23.84
2018-08-10T10:30:33.105Z,23.92
2018-08-10T10:33:01.051Z,24.10
2018-08-10T10:35:28.955Z,24.30
2018-08-10T10:37:56.880Z,24.65
2018-08-10T10:40:24.719Z,24.66
2018-08-10T10:42:52.571Z,24.89
2018-08-10T10:45:20.379Z,24.97
2018-08-10T10:47:48.337Z,24.82
2018-08-10T10:50:16.867Z,25.06
2018-08-10T10:52:44.731Z,25.54
2018-08-10T10:55:12.879Z,26.16
2018-08-10T10:57:41.500Z,26.75
2018-08-10T11:00:18.418Z,27.25
2018-08-10T11:02:46.962Z,27.29
2018-08-10T11:05:14.773Z,27.36
2018-08-10T11:07:42.555Z,27.64
2018-08-10T11:10:11.686Z,27.97
2018-08-10T11:12:39.622Z,28.28
2018-08-10T11:15:09.167Z,28.56
2018-08-10T11:17:37.127Z,28.63
2018-08-10T11:20:06.160Z,29.35
2018-08-10T11:22:34.041Z,29.46
2018-08-10T11:25:01.910Z,29.59
2018-08-10T11:27:29.700Z,29.75
2018-08-10T11:29:57.515Z,30.13
2018-08-10T11:32:25.320Z,30.04
2018-08-10T11:34:53.140Z,30.75
2018-08-10T11:37:21.006Z,30.68
2018-08-10T11:39:48.931Z,30.82
2018-08-10T11:42:16.811Z,30.70
2018-08-10T11:44:44.588Z,30.36
2018-08-10T11:47:12.489Z,30.76
2018-08-10T11:49:40.339Z,31.17
2018-08-10T11:52:08.207Z,30.94
2018-08-10T11:54:36.070Z,31.29
2018-08-10T11:57:03.977Z,31.36
2018-08-10T11:59:31.818Z,31.62
2018-08-10T12:01:59.672Z,31.72
2018-08-10T12:04:27.435Z,31.98
2018-08-10T12:06:55.315Z,31.93
2018-08-10T12:09:23.153Z,32.33
2018-08-10T12:11:50.922Z,31.96
2018-08-10T12:14:18.951Z,31.91
2018-08-10T12:16:46.763Z,32.05
2018-08-10T12:19:14.628Z,32.08
2018-08-10T12:21:42.464Z,32.34
2018-08-10T12:24:10.356Z,32.40
2018-08-10T12:26:38.282Z,32.54
2018-08-10T12:29:06.092Z,31.94
2018-08-10T12:31:33.923Z,32.08
2018-08-10T12:34:02.061Z,31.97
2018-08-10T12:36:29.926Z,31.72
2018-08-10T12:38:57.823Z,31.44
2018-08-10T12:41:25.639Z,31.42
2018-08-10T12:43:53.428Z,30.93
2018-08-10T12:46:21.286Z,31.19
2018-08-10T12:48:49.111Z,31.08
2018-08-10T12:51:16.939Z,30.86
2018-08-10T12:53:44.787Z,30.67
2018-08-10T12:56:12.594Z,30.77
2018-08-10T12:58:40.519Z,30.75
2018-08-10T13:01:08.400Z,30.43
2018-08-10T13:03:36.232Z,30.10
2018-08-10T13:06:04.066Z,29.47
2018-08-10T13:08:31.944Z,29.11
2018-08-10T13:10:59.764Z,29.26
2018-08-10T13:13:27.560Z,29.11
2018-08-10T13:15:55.467Z,29.32
2018-08-10T13:18:23.400Z,29.46
2018-08-10T13:20:51.238Z,29.44
2018-08-10T13:23:19.079Z,29.56
2018-08-10T13:25:46.901Z,29.31
2018-08-10T13:28:14.627Z,29.08
2018-08-10T13:30:42.531Z,28.95
2018-08-10T13:33:10.347Z,28.62
2018-08-10T13:35:38.215Z,28.32
2018-08-10T13:38:06.965Z,28.12
2018-08-10T13:40:34.788Z,27.87
2018-08-10T13:43:02.686Z,27.88
2018-08-10T13:45:30.471Z,27.94
2018-08-10T13:47:58.323Z,27.66
2018-08-10T13:50:26.168Z,27.71
2018-08-10T13:52:54.004Z,27.62
2018-08-10T13:55:21.864Z,27.53
2018-08-10T13:57:49.780Z,27.32
2018-08-10T14:00:23.995Z,27.40
2018-08-10T14:02:53.536Z,27.38
2018-08-10T14:05:22.380Z,27.49
2018-08-10T14:07:50.747Z,27.33
2018-08-10T14:10:18.652Z,27.18
2018-08-10T14:12:46.508Z,27.13
2018-08-10T14:15:14.393Z,27.20
2018-08-10T14:17:42.251Z,27.13
2018-08-10T14:20:11.185Z,27.05
2018-08-10T14:22:39.129Z,27.05
2018-08-10T14:25:08.595Z,26.94
2018-08-10T14:27:36.491Z,26.73
2018-08-10T14:30:08.808Z,26.75
2018-08-10T14:32:36.751Z,26.88
2018-08-10T14:35:05.719Z,26.87
2018-08-10T14:37:34.961Z,26.94
2018-08-10T14:40:03.689Z,26.99
2018-08-10T14:42:31.552Z,26.91
2018-08-10T14:44:59.463Z,26.68
2018-08-10T14:47:27.308Z,26.79
2018-08-10T14:49:55.223Z,26.84
2018-08-10T14:52:23.084Z,26.82
2018-08-10T14:54:51.026Z,26.75
2018-08-10T14:57:18.871Z,26.71
2018-08-10T14:59:46.696Z,26.67
2018-08-10T15:02:14.533Z,26.73
2018-08-10T15:04:42.383Z,26.65
2018-08-10T15:07:10.284Z,26.71
2018-08-10T15:09:38.183Z,26.68
2018-08-10T15:12:06.119Z,26.74
2018-08-10T15:14:33.893Z,26.77
2018-08-10T15:17:01.732Z,26.71
2018-08-10T15:19:29.730Z,26.51
2018-08-10T15:21:57.648Z,26.45
2018-08-10T15:24:25.452Z,26.28
2018-08-10T15:26:53.244Z,26.32
2018-08-10T15:29:21.086Z,26.40
2018-08-10T15:31:48.947Z,26.46
2018-08-10T15:34:16.784Z,26.45
2018-08-10T15:36:44.707Z,26.52
2018-08-10T15:39:12.522Z,26.32
2018-08-10T15:41:40.423Z,26.19
2018-08-10T15:44:08.307Z,26.27
2018-08-10T15:46:36.162Z,26.34
2018-08-10T15:49:04.068Z,26.41
2018-08-10T15:51:31.868Z,26.47
2018-08-10T15:53:59.820Z,26.44
2018-08-10T15:56:27.568Z,26.28
2018-08-10T15:58:55.450Z,26.30
2018-08-10T16:01:23.315Z,26.32
2018-08-10T16:03:51.201Z,26.25
2018-08-10T16:06:19.123Z,26.08
2018-08-10T16:08:47.091Z,25.99
2018-08-10T16:11:16.675Z,25.86
2018-08-10T16:13:49.008Z,25.68
2018-08-10T16:16:27.765Z,25.68
2018-08-10T16:21:37.275Z,25.46
2018-08-10T16:24:05.328Z,25.56
2018-08-10T16:26:33.209Z,25.47
2018-08-10T16:29:01.036Z,25.35
2018-08-10T16:31:28.804Z,25.27
2018-08-10T16:33:56.748Z,25.32
2018-08-10T16:36:24.622Z,25.31
2018-08-10T16:38:52.447Z,25.28
2018-08-10T16:41:20.366Z,25.30
2018-08-10T16:43:48.223Z,25.36
2018-08-10T16:46:16.250Z,25.22
2018-08-10T16:48:44.116Z,25.21
2018-08-10T16:51:12.804Z,25.02
2018-08-10T16:53:40.665Z,24.98
2018-08-10T16:56:08.585Z,24.98
2018-08-10T16:58:36.503Z,24.94
2018-08-10T17:01:04.616Z,24.99
2018-08-10T17:03:32.531Z,24.94
2018-08-10T17:06:00.471Z,24.88
2018-08-10T17:08:28.333Z,24.75
2018-08-10T17:10:56.249Z,24.67
2018-08-10T17:13:24.121Z,24.58
2018-08-10T17:15:52.048Z,24.65
2018-08-10T17:18:19.856Z,24.54
2018-08-10T17:20:47.701Z,24.61
2018-08-10T17:23:15.488Z,24.62
2018-08-10T17:25:43.351Z,24.45
2018-08-10T17:28:11.247Z,24.48
2018-08-10T17:30:39.064Z,24.31
2018-08-10T17:33:07.037Z,24.29
2018-08-10T17:35:34.819Z,24.17
2018-08-10T17:38:02.762Z,24.23
2018-08-10T17:40:30.587Z,24.16
2018-08-10T17:42:58.488Z,24.00
2018-08-10T17:45:26.312Z,24.08
2018-08-10T17:47:54.135Z,23.90
2018-08-10T17:50:22.087Z,23.80
2018-08-10T17:52:52.319Z,23.77
2018-08-10T17:55:20.717Z,23.68
2018-08-10T17:57:48.683Z,23.62
2018-08-10T18:00:20.555Z,23.66
2018-08-10T18:02:48.963Z,23.55
2018-08-10T18:05:17.539Z,23.38
2018-08-10T18:07:45.564Z,23.34
2018-08-10T18:10:14.396Z,23.33
2018-08-10T18:12:43.087Z,23.25
2018-08-10T18:15:16.052Z,23.18
2018-08-10T18:17:44.366Z,23.08
2018-08-10T18:20:15.514Z,23.10
2018-08-10T18:22:45.024Z,23.00
2018-08-10T18:25:14.349Z,22.92
2018-08-10T18:27:42.683Z,22.82
2018-08-10T18:30:16.432Z,22.79
2018-08-10T18:32:44.567Z,22.71
2018-08-10T18:35:12.452Z,22.52
2018-08-10T18:37:41.155Z,22.54
2018-08-10T18:40:11.092Z,22.50
2018-08-10T18:42:39.675Z,22.39
2018-08-10T18:45:08.883Z,22.34
2018-08-10T18:47:37.463Z,22.24
2018-08-10T18:50:06.427Z,22.23
2018-08-10T18:52:34.736Z,22.10
2018-08-10T18:55:02.731Z,22.03
2018-08-10T18:57:30.936Z,21.94
2018-08-10T18:59:58.975Z,21.88
2018-08-10T19:02:26.942Z,21.88
2018-08-10T19:04:54.816Z,21.73
2018-08-10T19:07:22.654Z,21.70
2018-08-10T19:09:50.514Z,21.60
2018-08-10T19:12:18.347Z,21.58
2018-08-10T19:14:46.139Z,21.53
2018-08-10T19:17:13.996Z,21.57
2018-08-10T19:19:41.859Z,21.57
2018-08-10T19:22:09.696Z,21.34
2018-08-10T19:24:37.488Z,21.27
2018-08-10T19:27:05.403Z,21.25
2018-08-10T19:29:33.266Z,21.19
2018-08-10T19:32:01.222Z,20.98
2018-08-10T19:34:29.171Z,20.93
2018-08-10T19:36:57.008Z,20.94
2018-08-10T19:39:25.400Z,20.78
2018-08-10T19:41:53.178Z,20.68
2018-08-10T19:44:21.019Z,20.78
2018-08-10T19:46:48.863Z,20.68
2018-08-10T19:49:16.727Z,20.58
2018-08-10T19:51:44.616Z,20.58
2018-08-10T19:54:12.408Z,20.60
2018-08-10T19:56:40.967Z,20.63
2018-08-10T19:59:08.814Z,20.46
2018-08-10T20:01:36.691Z,20.58
2018-08-10T20:04:04.526Z,20.64
2018-08-10T20:06:32.587Z,20.41
2018-08-10T20:09:00.391Z,20.49
2018-08-10T20:11:28.221Z,20.49
2018-08-10T20:13:56.477Z,20.60
2018-08-10T20:16:24.378Z,20.52
2018-08-10T20:18:52.232Z,20.29
2018-08-10T20:21:20.089Z,20.26
2018-08-10T20:23:47.968Z,20.34
2018-08-10T20:26:15.939Z,20.23
2018-08-10T20:28:43.751Z,19.95
2018-08-10T20:31:13.105Z,19.78
2018-08-10T20:33:43.245Z,19.92
2018-08-10T20:36:11.333Z,19.95
2018-08-10T20:38:39.485Z,19.93
2018-08-10T20:41:07.536Z,19.83
2018-08-10T20:43:35.506Z,19.77
2018-08-10T20:46:03.787Z,19.63
2018-08-10T20:48:31.664Z,19.62
2018-08-10T20:51:01.341Z,19.54
2018-08-10T20:53:29.203Z,19.51
2018-08-10T20:55:57.100Z,19.48
2018-08-10T20:58:24.928Z,19.48
2018-08-10T21:00:52.775Z,19.19
2018-08-10T21:03:20.603Z,19.09
2018-08-10T21:05:48.448Z,19.00
2018-08-10T21:08:16.333Z,19.05
2018-08-10T21:10:44.081Z,18.89
2018-08-10T21:13:11.892Z,18.73
2018-08-10T21:15:39.750Z,18.74
2018-08-10T21:18:07.612Z,18.72
2018-08-10T21:20:35.476Z,18.69
2018-08-10T21:23:03.440Z,18.66
2018-08-10T21:25:31.371Z,18.55
2018-08-10T21:27:59.229Z,18.57
2018-08-10T21:30:27.527Z,18.51
2018-08-10T21:32:55.322Z,18.45
2018-08-10T21:35:23.143Z,18.44
2018-08-10T21:37:51.015Z,18.42
2018-08-10T21:40:19.056Z,18.39
2018-08-10T21:42:46.923Z,18.17
2018-08-10T21:45:14.780Z,18.27
2018-08-10T21:47:42.689Z,18.25
2018-08-10T21:50:12.235Z,18.16
2018-08-10T21:52:40.621Z,17.94
2018-08-10T21:55:08.642Z,18.07
2018-08-10T21:57:36.614Z,17.95
2018-08-10T22:00:15.776Z,17.98
2018-08-10T22:02:43.580Z,17.77
2018-08-10T22:05:11.502Z,17.58
2018-08-10T22:07:39.316Z,17.64
2018-08-10T22:10:07.444Z,17.71
2018-08-10T22:12:41.087Z,17.62
2018-08-10T22:16:13.371Z,17.73
2018-08-10T22:18:46.863Z,17.69
2018-08-10T22:21:14.683Z,17.58
2018-08-10T22:23:42.615Z,17.49
2018-08-10T22:26:10.497Z,17.46
2018-08-10T22:28:38.589Z,17.46
2018-08-10T22:31:06.967Z,17.42
2018-08-10T22:33:35.304Z,17.44
2018-08-10T22:36:03.347Z,17.38
2018-08-10T22:38:31.247Z,17.48
2018-08-10T22:40:59.115Z,17.43
2018-08-10T22:43:26.960Z,17.39
2018-08-10T22:45:54.833Z,17.40
2018-08-10T22:48:22.676Z,17.37
2018-08-10T22:50:50.564Z,17.26
2018-08-10T22:53:18.379Z,17.28
2018-08-10T22:55:46.263Z,17.22
2018-08-10T22:58:14.092Z,17.21
2018-08-10T23:00:41.931Z,17.08
2018-08-10T23:03:09.827Z,17.07
2018-08-10T23:05:37.687Z,17.16
2018-08-10T23:08:05.539Z,17.12
2018-08-10T23:10:33.448Z,17.06
2018-08-10T23:13:01.312Z,16.95
2018-08-10T23:15:29.168Z,16.90
2018-08-10T23:17:57.819Z,16.91
2018-08-10T23:20:25.775Z,16.86
2018-08-10T23:22:53.571Z,16.87
2018-08-10T23:25:21.444Z,16.86
2018-08-10T23:27:49.581Z,16.86
2018-08-10T23:30:17.491Z,16.88
2018-08-10T23:32:45.657Z,16.87
2018-08-10T23:35:13.491Z,16.87
2018-08-10T23:37:41.513Z,16.88
2018-08-10T23:40:12.271Z,16.84
2018-08-10T23:42:40.144Z,16.77
2018-08-10T23:45:10.200Z,16.82
2018-08-10T23:47:38.322Z,16.71
2018-08-10T23:50:10.293Z,16.71
2018-08-10T23:52:38.559Z,16.81
2018-08-10T23:55:07.089Z,16.68
2018-08-10T23:57:35.472Z,16.63
